sensor_id;sensor_type;location;lat;lon;timestamp;pressure;altitude;pressure_sealevel;temperature;humidity
49367;BME280;35245;52.026;8.540;2022-12-18T00:01:15;-14100.28;;;-145.42;100.00
49367;BME280;35245;52.026;8.540;2022-12-18T00:03:44;-14100.28;;;-145.42;100.00
49367;BME280;35245;52.026;8.540;2022-12-18T00:06:12;-14100.28;;;-145.42;100.00
49367;BME280;35245;52.026;8.540;2022-12-18T00:08:39;-14100.28;;;-145.42;100.00
49367;BME280;35245;52.026;8.540;2022-12-18T00:11:10;-14100.28;;;-145.42;100.00
49367;BME280;35245;52.026;8.540;2022-12-18T00:13:38;-14100.28;;;-145.42;100.00
49367;BME280;35245;52.026;8.540;2022-12-18T00:16:08;-14100.28;;;-145.42;100.00
49367;BME280;35245;52.026;8.540;2022-12-18T00:18:36;-14100.28;;;-145.42;100.00
49367;BME280;35245;52.026;8.540;2022-12-18T00:21:08;-14100.28;;;-145.42;100.00
49367;BME280;35245;52.026;8.540;2022-12-18T00:23:37;-14100.28;;;-145.42;100.00
49367;BME280;35245;52.026;8.540;2022-12-18T00:26:07;-14100.28;;;-145.42;100.00
49367;BME280;35245;52.026;8.540;2022-12-18T00:28:36;-14100.28;;;-145.42;100.00
49367;BME280;35245;52.026;8.540;2022-12-18T00:31:06;-14100.28;;;-145.42;100.00
49367;BME280;35245;52.026;8.540;2022-12-18T00:33:34;-14100.28;;;-145.42;100.00
49367;BME280;35245;52.026;8.540;2022-12-18T00:36:02;-14100.28;;;-145.42;100.00
49367;BME280;35245;52.026;8.540;2022-12-18T00:38:30;-14100.28;;;-145.42;100.00
49367;BME280;35245;52.026;8.540;2022-12-18T00:40:58;-14100.28;;;-145.42;100.00
49367;BME280;35245;52.026;8.540;2022-12-18T00:43:25;-14100.28;;;-145.42;100.00
49367;BME280;35245;52.026;8.540;2022-12-18T00:45:51;-14100.28;;;-145.42;100.00
49367;BME280;35245;52.026;8.540;2022-12-18T00:48:19;-14100.28;;;-145.42;100.00
49367;BME280;35245;52.026;8.540;2022-12-18T00:50:48;-14100.28;;;-145.42;100.00
49367;BME280;35245;52.026;8.540;2022-12-18T00:53:15;-14100.28;;;-145.42;100.00
49367;BME280;35245;52.026;8.540;2022-12-18T00:55:45;-14100.28;;;-145.42;100.00
49367;BME280;35245;52.026;8.540;2022-12-18T00:58:15;-14100.28;;;-145.42;100.00
49367;BME280;35245;52.026;8.540;2022-12-18T01:00:43;-14100.28;;;-145.42;100.00
49367;BME280;35245;52.026;8.540;2022-12-18T01:03:13;-14100.28;;;-145.42;100.00
49367;BME280;35245;52.026;8.540;2022-12-18T01:05:42;-14100.28;;;-145.42;100.00
49367;BME280;35245;52.026;8.540;2022-12-18T01:08:09;-14100.28;;;-145.42;100.00
49367;BME280;35245;52.026;8.540;2022-12-18T01:10:36;-14100.28;;;-145.42;100.00
49367;BME280;35245;52.026;8.540;2022-12-18T01:13:08;-14100.28;;;-145.42;100.00
49367;BME280;35245;52.026;8.540;2022-12-18T01:15:35;-14100.28;;;-145.42;100.00
49367;BME280;35245;52.026;8.540;2022-12-18T01:18:06;-14100.28;;;-145.42;100.00
49367;BME280;35245;52.026;8.540;2022-12-18T01:20:33;-14100.28;;;-145.42;100.00
49367;BME280;35245;52.026;8.540;2022-12-18T01:23:00;-14100.28;;;-145.42;100.00
49367;BME280;35245;52.026;8.540;2022-12-18T01:25:27;-14100.28;;;-145.42;100.00
49367;BME280;35245;52.026;8.540;2022-12-18T01:27:55;-14100.28;;;-145.42;100.00
49367;BME280;35245;52.026;8.540;2022-12-18T01:30:24;-14100.28;;;-145.42;100.00
49367;BME280;35245;52.026;8.540;2022-12-18T01:32:51;-14100.28;;;-145.42;100.00
49367;BME280;35245;52.026;8.540;2022-12-18T01:35:18;-14100.28;;;-145.42;100.00
49367;BME280;35245;52.026;8.540;2022-12-18T01:37:46;-14100.28;;;-145.42;100.00
49367;BME280;35245;52.026;8.540;2022-12-18T01:40:13;-14100.28;;;-145.42;100.00
49367;BME280;35245;52.026;8.540;2022-12-18T01:42:40;-14100.28;;;-145.42;100.00
49367;BME280;35245;52.026;8.540;2022-12-18T01:45:26;-14100.28;;;-145.42;100.00
49367;BME280;35245;52.026;8.540;2022-12-18T01:47:56;-14100.28;;;-145.42;100.00
49367;BME280;35245;52.026;8.540;2022-12-18T01:50:28;-14100.28;;;-145.42;100.00
49367;BME280;35245;52.026;8.540;2022-12-18T01:53:02;-14100.28;;;-145.42;100.00
49367;BME280;35245;52.026;8.540;2022-12-18T01:55:35;-14100.28;;;-145.42;100.00
49367;BME280;35245;52.026;8.540;2022-12-18T01:58:04;-14100.28;;;-145.42;100.00
49367;BME280;35245;52.026;8.540;2022-12-18T02:00:33;-14100.28;;;-145.42;100.00
49367;BME280;35245;52.026;8.540;2022-12-18T02:03:00;-14100.28;;;-145.42;100.00
49367;BME280;35245;52.026;8.540;2022-12-18T02:05:41;-14100.28;;;-145.42;100.00
49367;BME280;35245;52.026;8.540;2022-12-18T02:08:16;-14100.28;;;-145.42;100.00
49367;BME280;35245;52.026;8.540;2022-12-18T02:10:56;-14100.28;;;-145.42;100.00
49367;BME280;35245;52.026;8.540;2022-12-18T02:13:32;-14100.28;;;-145.42;100.00
49367;BME280;35245;52.026;8.540;2022-12-18T02:16:09;-14100.28;;;-145.42;100.00
49367;BME280;35245;52.026;8.540;2022-12-18T02:18:45;-14100.28;;;-145.42;100.00
49367;BME280;35245;52.026;8.540;2022-12-18T02:21:24;-14100.28;;;-145.42;100.00
49367;BME280;35245;52.026;8.540;2022-12-18T02:24:03;-14100.28;;;-145.42;100.00
49367;BME280;35245;52.026;8.540;2022-12-18T02:26:40;-14100.28;;;-145.42;100.00
49367;BME280;35245;52.026;8.540;2022-12-18T02:29:15;-14100.28;;;-145.42;100.00
49367;BME280;35245;52.026;8.540;2022-12-18T02:31:47;-14100.28;;;-145.42;100.00
49367;BME280;35245;52.026;8.540;2022-12-18T02:34:19;-14100.28;;;-145.42;100.00
49367;BME280;35245;52.026;8.540;2022-12-18T02:36:48;-14100.28;;;-145.42;100.00
49367;BME280;35245;52.026;8.540;2022-12-18T02:39:17;-14100.28;;;-145.42;100.00
49367;BME280;35245;52.026;8.540;2022-12-18T02:41:49;-14100.28;;;-145.42;100.00
49367;BME280;35245;52.026;8.540;2022-12-18T02:44:17;-14100.28;;;-145.42;100.00
49367;BME280;35245;52.026;8.540;2022-12-18T02:46:48;-14100.28;;;-145.42;100.00
49367;BME280;35245;52.026;8.540;2022-12-18T02:49:29;-14100.28;;;-145.42;100.00
49367;BME280;35245;52.026;8.540;2022-12-18T02:52:07;-14100.28;;;-145.42;100.00
49367;BME280;35245;52.026;8.540;2022-12-18T02:54:52;-14100.28;;;-145.42;100.00
49367;BME280;35245;52.026;8.540;2022-12-18T02:57:34;-14100.28;;;-145.42;100.00
49367;BME280;35245;52.026;8.540;2022-12-18T03:00:08;-14100.28;;;-145.42;100.00
49367;BME280;35245;52.026;8.540;2022-12-18T03:02:41;-14100.28;;;-145.42;100.00
49367;BME280;35245;52.026;8.540;2022-12-18T03:05:16;-14100.28;;;-145.42;100.00
49367;BME280;35245;52.026;8.540;2022-12-18T03:07:52;-14100.28;;;-145.42;100.00
49367;BME280;35245;52.026;8.540;2022-12-18T03:10:26;-14100.28;;;-145.42;100.00
49367;BME280;35245;52.026;8.540;2022-12-18T03:13:03;-14100.28;;;-145.42;100.00
49367;BME280;35245;52.026;8.540;2022-12-18T03:15:35;-14100.28;;;-145.42;100.00
49367;BME280;35245;52.026;8.540;2022-12-18T03:18:08;-14100.28;;;-145.42;100.00
49367;BME280;35245;52.026;8.540;2022-12-18T03:20:39;-14100.28;;;-145.42;100.00
49367;BME280;35245;52.026;8.540;2022-12-18T03:23:12;-14100.28;;;-145.42;100.00
49367;BME280;35245;52.026;8.540;2022-12-18T03:25:44;-14100.28;;;-145.42;100.00
49367;BME280;35245;52.026;8.540;2022-12-18T03:28:18;-14100.28;;;-145.42;100.00
49367;BME280;35245;52.026;8.540;2022-12-18T03:30:50;-14100.28;;;-145.42;100.00
49367;BME280;35245;52.026;8.540;2022-12-18T03:33:23;-14100.28;;;-145.42;100.00
49367;BME280;35245;52.026;8.540;2022-12-18T03:35:52;-14100.28;;;-145.42;100.00
49367;BME280;35245;52.026;8.540;2022-12-18T03:38:20;-14100.28;;;-145.42;100.00
49367;BME280;35245;52.026;8.540;2022-12-18T03:40:56;-14100.28;;;-145.42;100.00
49367;BME280;35245;52.026;8.540;2022-12-18T03:43:36;-14100.28;;;-145.42;100.00
49367;BME280;35245;52.026;8.540;2022-12-18T03:46:11;-14100.28;;;-145.42;100.00
49367;BME280;35245;52.026;8.540;2022-12-18T03:48:46;-14100.28;;;-145.42;100.00
49367;BME280;35245;52.026;8.540;2022-12-18T03:51:22;-14100.28;;;-145.42;100.00
49367;BME280;35245;52.026;8.540;2022-12-18T03:53:55;-14100.28;;;-145.42;100.00
49367;BME280;35245;52.026;8.540;2022-12-18T03:56:28;-14100.28;;;-145.42;100.00
49367;BME280;35245;52.026;8.540;2022-12-18T03:58:59;-14100.28;;;-145.42;100.00
49367;BME280;35245;52.026;8.540;2022-12-18T04:01:31;-14100.28;;;-145.42;100.00
49367;BME280;35245;52.026;8.540;2022-12-18T04:04:00;-14100.28;;;-145.42;100.00
49367;BME280;35245;52.026;8.540;2022-12-18T04:06:28;-14100.28;;;-145.42;100.00
49367;BME280;35245;52.026;8.540;2022-12-18T04:08:57;-14100.28;;;-145.42;100.00
49367;BME280;35245;52.026;8.540;2022-12-18T04:11:25;-14100.28;;;-145.42;100.00
49367;BME280;35245;52.026;8.540;2022-12-18T04:13:57;-14100.28;;;-145.42;100.00
49367;BME280;35245;52.026;8.540;2022-12-18T04:16:25;-14100.28;;;-145.42;100.00
49367;BME280;35245;52.026;8.540;2022-12-18T04:18:52;-14100.28;;;-145.42;100.00
49367;BME280;35245;52.026;8.540;2022-12-18T04:21:20;-14100.28;;;-145.42;100.00
49367;BME280;35245;52.026;8.540;2022-12-18T04:23:48;-14100.28;;;-145.42;100.00
49367;BME280;35245;52.026;8.540;2022-12-18T04:26:15;-14100.28;;;-145.42;100.00
49367;BME280;35245;52.026;8.540;2022-12-18T04:28:43;-14100.28;;;-145.42;100.00
49367;BME280;35245;52.026;8.540;2022-12-18T04:31:11;-14100.28;;;-145.42;100.00
49367;BME280;35245;52.026;8.540;2022-12-18T04:33:39;-14100.28;;;-145.42;100.00
49367;BME280;35245;52.026;8.540;2022-12-18T04:36:07;-14100.28;;;-145.42;100.00
49367;BME280;35245;52.026;8.540;2022-12-18T04:38:34;-14100.28;;;-145.42;100.00
49367;BME280;35245;52.026;8.540;2022-12-18T04:41:01;-14100.28;;;-145.42;100.00
49367;BME280;35245;52.026;8.540;2022-12-18T04:43:28;-14100.28;;;-145.42;100.00
49367;BME280;35245;52.026;8.540;2022-12-18T04:46:02;-14100.28;;;-145.42;100.00
49367;BME280;35245;52.026;8.540;2022-12-18T04:48:31;-14100.28;;;-145.42;100.00
49367;BME280;35245;52.026;8.540;2022-12-18T04:50:59;-14100.28;;;-145.42;100.00
49367;BME280;35245;52.026;8.540;2022-12-18T04:53:26;-14100.28;;;-145.42;100.00
49367;BME280;35245;52.026;8.540;2022-12-18T04:56:04;-14100.28;;;-145.42;100.00
49367;BME280;35245;52.026;8.540;2022-12-18T04:58:31;-14100.28;;;-145.42;100.00
49367;BME280;35245;52.026;8.540;2022-12-18T05:00:59;-14100.28;;;-145.42;100.00
49367;BME280;35245;52.026;8.540;2022-12-18T05:03:27;-14100.28;;;-145.42;100.00
49367;BME280;35245;52.026;8.540;2022-12-18T05:05:56;-14100.28;;;-145.42;100.00
49367;BME280;35245;52.026;8.540;2022-12-18T05:08:23;-14100.28;;;-145.42;100.00
49367;BME280;35245;52.026;8.540;2022-12-18T05:10:58;-14100.28;;;-145.42;100.00
49367;BME280;35245;52.026;8.540;2022-12-18T05:13:26;-14100.28;;;-145.42;100.00
49367;BME280;35245;52.026;8.540;2022-12-18T05:15:54;-14100.28;;;-145.42;100.00
49367;BME280;35245;52.026;8.540;2022-12-18T05:18:23;-14100.28;;;-145.42;100.00
49367;BME280;35245;52.026;8.540;2022-12-18T05:20:51;-14100.28;;;-145.42;100.00
49367;BME280;35245;52.026;8.540;2022-12-18T05:23:21;-14100.28;;;-145.42;100.00
49367;BME280;35245;52.026;8.540;2022-12-18T05:25:51;-14100.28;;;-145.42;100.00
49367;BME280;35245;52.026;8.540;2022-12-18T05:28:18;-14100.28;;;-145.42;100.00
49367;BME280;35245;52.026;8.540;2022-12-18T05:30:48;-14100.28;;;-145.42;100.00
49367;BME280;35245;52.026;8.540;2022-12-18T05:33:16;-14100.28;;;-145.42;100.00
49367;BME280;35245;52.026;8.540;2022-12-18T05:35:44;-14100.28;;;-145.42;100.00
49367;BME280;35245;52.026;8.540;2022-12-18T05:38:11;-14100.28;;;-145.42;100.00
49367;BME280;35245;52.026;8.540;2022-12-18T05:40:43;-14100.28;;;-145.42;100.00
49367;BME280;35245;52.026;8.540;2022-12-18T05:43:11;-14100.28;;;-145.42;100.00
49367;BME280;35245;52.026;8.540;2022-12-18T05:45:38;-14100.28;;;-145.42;100.00
49367;BME280;35245;52.026;8.540;2022-12-18T05:48:06;-14100.28;;;-145.42;100.00
49367;BME280;35245;52.026;8.540;2022-12-18T05:50:34;-14100.28;;;-145.42;100.00
49367;BME280;35245;52.026;8.540;2022-12-18T05:53:02;-14100.28;;;-145.42;100.00
49367;BME280;35245;52.026;8.540;2022-12-18T05:55:33;-14100.28;;;-145.42;100.00
49367;BME280;35245;52.026;8.540;2022-12-18T05:58:02;-14100.28;;;-145.42;100.00
49367;BME280;35245;52.026;8.540;2022-12-18T06:00:30;-14100.28;;;-145.42;100.00
49367;BME280;35245;52.026;8.540;2022-12-18T06:02:57;-14100.28;;;-145.42;100.00
49367;BME280;35245;52.026;8.540;2022-12-18T06:05:25;-14100.28;;;-145.42;100.00
49367;BME280;35245;52.026;8.540;2022-12-18T06:07:52;-14100.28;;;-145.42;100.00
49367;BME280;35245;52.026;8.540;2022-12-18T06:10:19;-14100.28;;;-145.42;100.00
49367;BME280;35245;52.026;8.540;2022-12-18T06:12:47;-14100.28;;;-145.42;100.00
49367;BME280;35245;52.026;8.540;2022-12-18T06:15:15;-14100.28;;;-145.42;100.00
49367;BME280;35245;52.026;8.540;2022-12-18T06:17:43;-14100.28;;;-145.42;100.00
49367;BME280;35245;52.026;8.540;2022-12-18T06:20:10;-14100.28;;;-145.42;100.00
49367;BME280;35245;52.026;8.540;2022-12-18T06:22:37;-14100.28;;;-145.42;100.00
49367;BME280;35245;52.026;8.540;2022-12-18T06:25:06;-14100.28;;;-145.42;100.00
49367;BME280;35245;52.026;8.540;2022-12-18T06:27:33;-14100.28;;;-145.42;100.00
49367;BME280;35245;52.026;8.540;2022-12-18T06:30:00;-14100.28;;;-145.42;100.00
49367;BME280;35245;52.026;8.540;2022-12-18T06:32:29;-14100.28;;;-145.42;100.00
49367;BME280;35245;52.026;8.540;2022-12-18T06:34:56;-14100.28;;;-145.42;100.00
49367;BME280;35245;52.026;8.540;2022-12-18T06:37:23;-14100.28;;;-145.42;100.00
49367;BME280;35245;52.026;8.540;2022-12-18T06:39:51;-14100.28;;;-145.42;100.00
49367;BME280;35245;52.026;8.540;2022-12-18T06:42:22;-14100.28;;;-145.42;100.00
49367;BME280;35245;52.026;8.540;2022-12-18T06:44:49;-14100.28;;;-145.42;100.00
49367;BME280;35245;52.026;8.540;2022-12-18T06:47:16;-14100.28;;;-145.42;100.00
49367;BME280;35245;52.026;8.540;2022-12-18T06:49:45;-14100.28;;;-145.42;100.00
49367;BME280;35245;52.026;8.540;2022-12-18T06:52:12;-14100.28;;;-145.42;100.00
49367;BME280;35245;52.026;8.540;2022-12-18T06:54:41;-14100.28;;;-145.42;100.00
49367;BME280;35245;52.026;8.540;2022-12-18T06:57:09;-14100.28;;;-145.42;100.00
49367;BME280;35245;52.026;8.540;2022-12-18T06:59:36;-14100.28;;;-145.42;100.00
49367;BME280;35245;52.026;8.540;2022-12-18T07:02:03;-14100.28;;;-145.42;100.00
49367;BME280;35245;52.026;8.540;2022-12-18T07:04:31;-14100.28;;;-145.42;100.00
49367;BME280;35245;52.026;8.540;2022-12-18T07:07:00;-14100.28;;;-145.42;100.00
49367;BME280;35245;52.026;8.540;2022-12-18T07:09:27;-14100.28;;;-145.42;100.00
49367;BME280;35245;52.026;8.540;2022-12-18T07:11:54;-14100.28;;;-145.42;100.00
49367;BME280;35245;52.026;8.540;2022-12-18T07:14:21;-14100.28;;;-145.42;100.00
49367;BME280;35245;52.026;8.540;2022-12-18T07:16:48;-14100.28;;;-145.42;100.00
49367;BME280;35245;52.026;8.540;2022-12-18T07:19:15;-14100.28;;;-145.42;100.00
49367;BME280;35245;52.026;8.540;2022-12-18T07:21:43;-14100.28;;;-145.42;100.00
49367;BME280;35245;52.026;8.540;2022-12-18T07:24:12;-14100.28;;;-145.42;100.00
49367;BME280;35245;52.026;8.540;2022-12-18T07:26:39;-14100.28;;;-145.42;100.00
49367;BME280;35245;52.026;8.540;2022-12-18T07:29:06;-14100.28;;;-145.42;100.00
49367;BME280;35245;52.026;8.540;2022-12-18T07:31:33;-14100.28;;;-145.42;100.00
49367;BME280;35245;52.026;8.540;2022-12-18T07:34:00;-14100.28;;;-145.42;100.00
49367;BME280;35245;52.026;8.540;2022-12-18T07:36:28;-14100.28;;;-145.42;100.00
49367;BME280;35245;52.026;8.540;2022-12-18T07:38:55;-14100.28;;;-145.42;100.00
49367;BME280;35245;52.026;8.540;2022-12-18T07:41:23;-14100.28;;;-145.42;100.00
49367;BME280;35245;52.026;8.540;2022-12-18T07:43:50;-14100.28;;;-145.42;100.00
49367;BME280;35245;52.026;8.540;2022-12-18T07:46:18;-14100.28;;;-145.42;100.00
49367;BME280;35245;52.026;8.540;2022-12-18T07:48:45;-14100.28;;;-145.42;100.00
49367;BME280;35245;52.026;8.540;2022-12-18T07:51:13;-14100.28;;;-145.42;100.00
49367;BME280;35245;52.026;8.540;2022-12-18T07:53:40;-14100.28;;;-145.42;100.00
49367;BME280;35245;52.026;8.540;2022-12-18T07:56:10;-14100.28;;;-145.42;100.00
49367;BME280;35245;52.026;8.540;2022-12-18T07:58:39;-14100.28;;;-145.42;100.00
49367;BME280;35245;52.026;8.540;2022-12-18T08:01:08;-14100.28;;;-145.42;100.00
49367;BME280;35245;52.026;8.540;2022-12-18T08:03:37;-14100.28;;;-145.42;100.00
49367;BME280;35245;52.026;8.540;2022-12-18T08:06:07;-14100.28;;;-145.42;100.00
49367;BME280;35245;52.026;8.540;2022-12-18T08:08:35;-14100.28;;;-145.42;100.00
49367;BME280;35245;52.026;8.540;2022-12-18T08:11:03;-14100.28;;;-145.42;100.00
49367;BME280;35245;52.026;8.540;2022-12-18T08:13:30;-14100.28;;;-145.42;100.00
49367;BME280;35245;52.026;8.540;2022-12-18T08:16:00;-14100.28;;;-145.42;100.00
49367;BME280;35245;52.026;8.540;2022-12-18T08:18:28;-14100.28;;;-145.42;100.00
49367;BME280;35245;52.026;8.540;2022-12-18T08:21:08;-14100.28;;;-145.42;100.00
49367;BME280;35245;52.026;8.540;2022-12-18T08:23:37;-14100.28;;;-145.42;100.00
49367;BME280;35245;52.026;8.540;2022-12-18T08:26:04;-14100.28;;;-145.42;100.00
49367;BME280;35245;52.026;8.540;2022-12-18T08:28:32;-14100.28;;;-145.42;100.00
49367;BME280;35245;52.026;8.540;2022-12-18T08:31:00;-14100.28;;;-145.42;100.00
49367;BME280;35245;52.026;8.540;2022-12-18T08:33:27;-14100.28;;;-145.42;100.00
49367;BME280;35245;52.026;8.540;2022-12-18T08:35:55;-14100.28;;;-145.42;100.00
49367;BME280;35245;52.026;8.540;2022-12-18T08:38:22;-14100.28;;;-145.42;100.00
49367;BME280;35245;52.026;8.540;2022-12-18T08:40:49;-14100.28;;;-145.42;100.00
49367;BME280;35245;52.026;8.540;2022-12-18T08:43:16;-14100.28;;;-145.42;100.00
49367;BME280;35245;52.026;8.540;2022-12-18T08:46:05;-14100.28;;;-145.42;100.00
49367;BME280;35245;52.026;8.540;2022-12-18T08:48:32;-14100.28;;;-145.42;100.00
49367;BME280;35245;52.026;8.540;2022-12-18T08:51:00;-14100.28;;;-145.42;100.00
49367;BME280;35245;52.026;8.540;2022-12-18T08:53:27;-14098.81;;;-145.42;100.00
49367;BME280;35245;52.026;8.540;2022-12-18T08:55:56;-14098.81;;;-145.42;100.00
49367;BME280;35245;52.026;8.540;2022-12-18T08:58:23;-14098.81;;;-145.42;100.00
49367;BME280;35245;52.026;8.540;2022-12-18T09:00:50;-13849.31;;;-145.42;100.00
49367;BME280;35245;52.026;8.540;2022-12-18T09:03:19;-13849.31;;;-145.42;100.00
49367;BME280;35245;52.026;8.540;2022-12-18T09:05:48;-14098.81;;;-145.42;100.00
49367;BME280;35245;52.026;8.540;2022-12-18T09:08:15;-14098.81;;;-145.42;100.00
49367;BME280;35245;52.026;8.540;2022-12-18T09:10:43;-14098.81;;;-145.42;100.00
49367;BME280;35245;52.026;8.540;2022-12-18T09:13:11;-14098.81;;;-145.42;100.00
49367;BME280;35245;52.026;8.540;2022-12-18T09:15:41;-13849.31;;;-145.42;100.00
49367;BME280;35245;52.026;8.540;2022-12-18T09:18:09;-13849.31;;;-145.42;100.00
49367;BME280;35245;52.026;8.540;2022-12-18T09:20:38;-13849.31;;;-145.42;100.00
49367;BME280;35245;52.026;8.540;2022-12-18T09:23:07;-13599.78;;;-145.42;100.00
49367;BME280;35245;52.026;8.540;2022-12-18T09:25:34;-13350.22;;;-145.42;100.00
49367;BME280;35245;52.026;8.540;2022-12-18T09:28:06;-13350.22;;;-145.42;100.00
49367;BME280;35245;52.026;8.540;2022-12-18T09:30:33;-13599.78;;;-145.42;100.00
49367;BME280;35245;52.026;8.540;2022-12-18T09:33:01;-13599.78;;;-145.42;100.00
49367;BME280;35245;52.026;8.540;2022-12-18T09:35:28;-13599.78;;;-145.42;100.00
49367;BME280;35245;52.026;8.540;2022-12-18T09:37:56;-13599.78;;;-145.42;100.00
49367;BME280;35245;52.026;8.540;2022-12-18T09:40:26;-13599.78;;;-145.42;100.00
49367;BME280;35245;52.026;8.540;2022-12-18T09:42:59;-13599.78;;;-145.42;100.00
49367;BME280;35245;52.026;8.540;2022-12-18T09:45:28;-13599.78;;;-145.42;100.00
49367;BME280;35245;52.026;8.540;2022-12-18T09:47:57;-13849.31;;;-145.42;100.00
49367;BME280;35245;52.026;8.540;2022-12-18T09:50:34;-14098.81;;;-145.42;100.00
49367;BME280;35245;52.026;8.540;2022-12-18T09:53:07;-14098.81;;;-145.42;100.00
49367;BME280;35245;52.026;8.540;2022-12-18T09:55:42;-14098.81;;;-145.42;100.00
49367;BME280;35245;52.026;8.540;2022-12-18T09:58:19;-14098.81;;;-145.42;100.00
49367;BME280;35245;52.026;8.540;2022-12-18T10:00:48;-14098.81;;;-145.42;100.00
49367;BME280;35245;52.026;8.540;2022-12-18T10:03:16;-14098.81;;;-145.42;100.00
49367;BME280;35245;52.026;8.540;2022-12-18T10:05:49;-14098.81;;;-145.42;100.00
49367;BME280;35245;52.026;8.540;2022-12-18T10:08:29;-14098.81;;;-145.42;100.00
49367;BME280;35245;52.026;8.540;2022-12-18T10:11:16;-14098.81;;;-145.42;100.00
49367;BME280;35245;52.026;8.540;2022-12-18T10:13:49;-14100.28;;;-145.42;100.00
49367;BME280;35245;52.026;8.540;2022-12-18T10:16:25;-14100.28;;;-145.42;100.00
49367;BME280;35245;52.026;8.540;2022-12-18T10:19:11;-14100.28;;;-145.42;100.00
49367;BME280;35245;52.026;8.540;2022-12-18T10:21:57;-14100.28;;;-145.42;100.00
49367;BME280;35245;52.026;8.540;2022-12-18T10:24:34;-14100.28;;;-145.42;100.00
49367;BME280;35245;52.026;8.540;2022-12-18T10:27:13;-14100.28;;;-145.42;100.00
49367;BME280;35245;52.026;8.540;2022-12-18T10:29:42;-14100.28;;;-145.42;100.00
49367;BME280;35245;52.026;8.540;2022-12-18T10:32:15;-14100.28;;;-145.42;100.00
49367;BME280;35245;52.026;8.540;2022-12-18T10:34:46;-14100.28;;;-145.42;100.00
49367;BME280;35245;52.026;8.540;2022-12-18T10:37:18;-14100.28;;;-145.42;100.00
49367;BME280;35245;52.026;8.540;2022-12-18T10:39:47;-14100.28;;;-145.42;100.00
49367;BME280;35245;52.026;8.540;2022-12-18T10:42:31;-14100.28;;;-145.42;100.00
49367;BME280;35245;52.026;8.540;2022-12-18T10:45:03;-14100.28;;;-145.42;100.00
49367;BME280;35245;52.026;8.540;2022-12-18T10:47:30;-14100.28;;;-145.42;100.00
49367;BME280;35245;52.026;8.540;2022-12-18T10:49:58;-14100.28;;;-145.42;100.00
49367;BME280;35245;52.026;8.540;2022-12-18T10:52:26;-14100.28;;;-145.42;100.00
49367;BME280;35245;52.026;8.540;2022-12-18T10:55:01;-14100.28;;;-145.42;100.00
49367;BME280;35245;52.026;8.540;2022-12-18T10:57:35;-14100.28;;;-145.42;100.00
49367;BME280;35245;52.026;8.540;2022-12-18T11:00:25;-14098.81;;;-145.42;100.00
49367;BME280;35245;52.026;8.540;2022-12-18T11:02:54;-14098.81;;;-145.42;100.00
49367;BME280;35245;52.026;8.540;2022-12-18T11:05:29;-13849.31;;;-145.42;100.00
49367;BME280;35245;52.026;8.540;2022-12-18T11:07:58;-13849.31;;;-145.42;100.00
49367;BME280;35245;52.026;8.540;2022-12-18T11:10:32;-13350.22;;;-145.42;100.00
49367;BME280;35245;52.026;8.540;2022-12-18T11:13:16;-12601.47;;;-145.42;100.00
49367;BME280;35245;52.026;8.540;2022-12-18T11:15:45;-12351.84;;;-145.42;100.00
49367;BME280;35245;52.026;8.540;2022-12-18T11:18:18;-11852.56;;;-145.42;100.00
49367;BME280;35245;52.026;8.540;2022-12-18T11:20:53;-11103.53;;;-145.42;100.00
49367;BME280;35245;52.026;8.540;2022-12-18T11:23:22;-10604.09;;;-145.42;100.00
49367;BME280;35245;52.026;8.540;2022-12-18T11:25:57;-9854.81;;;-145.42;100.00
49367;BME280;35245;52.026;8.540;2022-12-18T11:28:35;-9605.00;;;-145.42;100.00
49367;BME280;35245;52.026;8.540;2022-12-18T11:31:23;-9355.19;;;-145.42;100.00
49367;BME280;35245;52.026;8.540;2022-12-18T11:33:59;-9605.00;;;-145.42;100.00
49367;BME280;35245;52.026;8.540;2022-12-18T11:36:32;-9105.38;;;-145.42;100.00
49367;BME280;35245;52.026;8.540;2022-12-18T11:39:09;-8605.66;;;-145.42;100.00
49367;BME280;35245;52.026;8.540;2022-12-18T11:41:47;-7106.16;;;-145.42;100.00
49367;BME280;35245;52.026;8.540;2022-12-18T11:44:42;-6106.19;;;-145.42;100.00
49367;BME280;35245;52.026;8.540;2022-12-18T11:47:20;-6106.19;;;-145.42;100.00
49367;BME280;35245;52.026;8.540;2022-12-18T11:49:49;-4605.69;;;-145.42;100.00
49367;BME280;35245;52.026;8.540;2022-12-18T11:52:21;-4105.41;;;-145.42;100.00
49367;BME280;35245;52.026;8.540;2022-12-18T11:54:53;-4105.41;;;-145.42;100.00
49367;BME280;35245;52.026;8.540;2022-12-18T11:57:34;-4105.41;;;-145.42;100.00
49367;BME280;35245;52.026;8.540;2022-12-18T12:00:12;-2854.41;;;-145.42;100.00
49367;BME280;35245;52.026;8.540;2022-12-18T12:03:19;-2353.88;;;-145.42;100.00
49367;BME280;35245;52.026;8.540;2022-12-18T12:06:02;-2103.59;;;-145.42;100.00
49367;BME280;35245;52.026;8.540;2022-12-18T12:08:42;-2103.59;;;-145.42;100.00
49367;BME280;35245;52.026;8.540;2022-12-18T12:11:20;-1602.97;;;-145.42;100.00
49367;BME280;35245;52.026;8.540;2022-12-18T12:14:07;-851.94;;;-145.42;100.00
49367;BME280;35245;52.026;8.540;2022-12-18T12:16:47;-1102.31;;;-145.42;100.00
49367;BME280;35245;52.026;8.540;2022-12-18T12:19:30;-1102.31;;;-145.42;100.00
49367;BME280;35245;52.026;8.540;2022-12-18T12:22:10;-851.94;;;-145.42;100.00
49367;BME280;35245;52.026;8.540;2022-12-18T12:24:56;-1102.31;;;-145.42;100.00
49367;BME280;35245;52.026;8.540;2022-12-18T12:27:34;-1102.31;;;-145.42;100.00
49367;BME280;35245;52.026;8.540;2022-12-18T12:30:09;-1102.31;;;-145.42;100.00
49367;BME280;35245;52.026;8.540;2022-12-18T12:32:54;-1102.31;;;-145.42;100.00
49367;BME280;35245;52.026;8.540;2022-12-18T12:35:37;-1352.66;;;-145.42;100.00
49367;BME280;35245;52.026;8.540;2022-12-18T12:38:14;-1352.66;;;-145.42;100.00
49367;BME280;35245;52.026;8.540;2022-12-18T12:40:47;-1102.31;;;-145.42;100.00